Portada
METAR-TAF:

METAR-TAF

Aeroports :

Kaneohe, Hawaii, Estats Units d'Amèrica

latitud: 21-27-14N, longitud: 157-45-56W, altitud: 5 m

Observació

L'informe es va fer fa 8 minuts, a les 10:57 UTC
Vent 8 kt del Nord-Est
Temperatura 23°C
Humitat 73%
Pressió 1019 hPa
Visibilitat: 16.1 km
Escasses núvols a una alçada de 2400 ft
Núvols disperses a una alçada de 3300 ft
Cel ennuvolat a una alçada de 4400 ft

METAR: PHNG 251057Z 05008KT 10SM FEW024 SCT033 BKN044 23/18 A3009 RMK AO2 SLP183 T02280178

Hora: 01:05 (11:05 UTC)

Pronòstic

Pronòstic vàlid del 25 a les 09 UTC al 26 a les 09 UTC
Vent 10 kt del Est/Nord-Est
Visibilitat 10 km o més
Escasses núvols a una alçada de 2500 ft
Núvols disperses a una alçada de 4000 ft
Temporalment
l' 25 a les 09 UTC al 25 a les 15 UTC
Vent 10 kt del Est/Nord-Est amb ràfegues de 18 kt
Cel ennuvolat a una alçada de 2500 ft

TAF: PHNG 2509/2609 06010KT 9999 FEW025 SCT040 QNH3002INS TEMPO 2509/2515 06010G18KT BKN025 T23/2513Z T26/2523Z

Observacions i pronòstics meteorològics de més de 4000 aeroports (METAR i TAF).

Les estacions disponibles són els punts grocs i vermells al mapa.

Posi el ratolí al punt desitjat per veure el nom de l'estació.

Feu clic per veure les observacions i els pronòstics meteorològics.

Per canviar el mapa: feu clic els botons verds amb una creu de color negre per apropar; al botó verd amb un guió per allunyar la imatge; o en les fletxes verdes per a mapes adjacents.


METAR-TAF: